createdAt,value
2022-10-17T00:04:05.661Z,9.84
2022-10-17T00:09:04.985Z,10.16
2022-10-17T00:14:04.299Z,10.16
2022-10-17T00:19:03.605Z,10.16
2022-10-17T00:24:02.968Z,10.16
2022-10-17T00:29:02.098Z,10.16
2022-10-17T00:34:01.420Z,10.48
2022-10-17T00:39:00.750Z,10.48
2022-10-17T00:44:01.051Z,10.79
2022-10-17T00:49:00.339Z,10.79
2022-10-17T00:53:59.617Z,10.48
2022-10-17T00:58:57.938Z,10.79
2022-10-17T01:03:58.079Z,10.48
2022-10-17T01:08:57.381Z,10.79
2022-10-17T01:13:55.674Z,10.79
2022-10-17T01:18:54.968Z,10.16
2022-10-17T01:23:55.270Z,11.09
2022-10-17T01:28:53.564Z,10.79
2022-10-17T01:33:52.869Z,10.48
2022-10-17T01:38:54.195Z,11.09
2022-10-17T01:43:51.486Z,10.79
2022-10-17T01:48:51.810Z,10.16
2022-10-17T01:53:50.102Z,10.48
2022-10-17T01:58:49.403Z,10.16
2022-10-17T02:03:50.733Z,9.57
2022-10-17T02:08:48.055Z,10.16
2022-10-17T02:13:47.213Z,10.16
2022-10-17T02:18:48.346Z,9.84
2022-10-17T02:23:45.654Z,10.16
2022-10-17T02:28:46.034Z,9.52
2022-10-17T02:33:45.170Z,10.16
2022-10-17T02:38:43.292Z,10.16
2022-10-17T02:43:42.595Z,10.16
2022-10-17T02:48:41.891Z,9.52
2022-10-17T02:53:42.174Z,9.84
2022-10-17T02:58:41.474Z,9.84
2022-10-17T03:03:39.762Z,9.84
2022-10-17T03:13:39.852Z,9.84
2022-10-17T03:18:37.548Z,10.16
2022-10-17T03:23:35.907Z,9.84
2022-10-17T03:28:36.128Z,10.16
2022-10-17T03:33:35.270Z,10.79
2022-10-17T03:38:37.565Z,10.16
2022-10-17T03:43:33.841Z,9.84
2022-10-17T03:48:33.170Z,10.16
2022-10-17T03:53:32.473Z,10.16
2022-10-17T03:58:32.803Z,9.25
2022-10-17T04:03:31.096Z,9.57
2022-10-17T04:08:30.384Z,9.25
2022-10-17T04:13:30.682Z,9.57
2022-10-17T04:18:28.997Z,9.25
2022-10-17T04:23:29.341Z,9.57
2022-10-17T04:28:27.712Z,9.57
2022-10-17T04:33:27.869Z,9.57
2022-10-17T04:38:28.590Z,9.57
2022-10-17T04:43:26.497Z,9.57
2022-10-17T04:48:24.804Z,9.87
2022-10-17T04:53:24.138Z,9.87
2022-10-17T04:58:24.448Z,8.96
2022-10-17T05:03:22.728Z,9.87
2022-10-17T05:08:22.050Z,8.96
2022-10-17T05:13:21.352Z,9.26
2022-10-17T05:18:21.660Z,8.96
2022-10-17T05:23:19.970Z,9.26
2022-10-17T05:28:20.270Z,8.96
2022-10-17T05:33:18.591Z,8.65
2022-10-17T05:38:17.920Z,8.96
2022-10-17T05:43:17.233Z,9.26
2022-10-17T05:48:19.677Z,8.96
2022-10-17T05:53:16.760Z,8.96
2022-10-17T05:58:22.002Z,8.96
2022-10-17T06:03:14.296Z,8.96
2022-10-17T06:08:13.413Z,9.26
2022-10-17T06:13:12.741Z,8.96
2022-10-17T06:18:12.026Z,8.96
2022-10-17T06:23:12.366Z,9.26
2022-10-17T06:28:11.675Z,9.26
2022-10-17T06:33:11.048Z,8.96
2022-10-17T06:38:09.143Z,8.96
2022-10-17T06:43:09.473Z,8.96
2022-10-17T06:48:07.777Z,8.96
2022-10-17T06:53:07.091Z,9.57
2022-10-17T06:58:06.409Z,9.25
2022-10-17T07:03:06.716Z,9.25
2022-10-17T07:08:06.004Z,9.84
2022-10-17T07:13:04.307Z,9.52
2022-10-17T07:18:03.619Z,9.52
2022-10-17T07:23:02.914Z,9.52
2022-10-17T07:28:02.213Z,9.52
2022-10-17T07:33:02.494Z,9.52
2022-10-17T07:38:00.768Z,9.74
2022-10-17T07:43:00.053Z,10.09
2022-10-17T07:48:00.343Z,9.39
2022-10-17T07:52:58.635Z,9.74
2022-10-17T07:57:58.098Z,10.09
2022-10-17T08:02:56.261Z,10.09
2022-10-17T08:07:56.488Z,9.74
2022-10-17T08:12:54.656Z,9.74
2022-10-17T08:17:54.867Z,10.09
2022-10-17T08:22:53.032Z,9.74
2022-10-17T08:27:53.205Z,9.39
2022-10-17T08:32:51.394Z,10.42
2022-10-17T08:37:53.079Z,10.09
2022-10-17T08:42:50.812Z,10.09
2022-10-17T08:47:50.040Z,10.09
2022-10-17T08:52:49.186Z,10.42
2022-10-17T08:57:48.462Z,10.75
2022-10-17T09:02:47.670Z,10.09
2022-10-17T09:07:46.867Z,10.09
2022-10-17T09:12:46.063Z,10.42
2022-10-17T09:17:44.263Z,10.42
2022-10-17T09:22:44.506Z,10.75
2022-10-17T09:27:42.940Z,10.42
2022-10-17T09:32:41.935Z,10.42
2022-10-17T09:37:42.091Z,10.42
2022-10-17T09:42:41.269Z,10.42
2022-10-17T09:47:39.566Z,10.42
2022-10-17T09:52:39.787Z,10.09
2022-10-17T09:57:38.011Z,10.75
2022-10-17T10:02:38.253Z,10.75
2022-10-17T10:07:37.482Z,10.75
2022-10-17T10:12:36.799Z,10.75
2022-10-17T10:17:34.810Z,10.75
2022-10-17T10:22:34.004Z,11.08
2022-10-17T10:27:34.195Z,11.08
2022-10-17T10:32:33.486Z,11.08
2022-10-17T10:37:33.122Z,10.75
2022-10-17T10:42:33.949Z,11.08
2022-10-17T10:47:31.560Z,11.40
2022-10-17T10:52:30.354Z,11.08
2022-10-17T10:57:29.879Z,11.40
2022-10-17T11:02:28.706Z,11.40
2022-10-17T11:07:27.290Z,11.40
2022-10-17T11:12:27.034Z,11.40
2022-10-17T11:17:26.304Z,11.40
2022-10-17T11:22:28.917Z,11.40
2022-10-17T11:27:23.782Z,11.40
2022-10-17T11:32:24.040Z,11.40
2022-10-17T11:37:23.291Z,11.40
2022-10-17T11:42:21.521Z,11.08
2022-10-17T11:47:21.015Z,11.08
2022-10-17T11:52:44.072Z,11.66
2022-10-17T11:57:20.278Z,11.66
2022-10-17T12:02:19.518Z,11.66
2022-10-17T12:07:18.780Z,11.08
2022-10-17T12:12:17.019Z,11.66
2022-10-17T12:17:17.147Z,11.99
2022-10-17T12:22:15.611Z,10.75
2022-10-17T12:27:15.882Z,11.08
2022-10-17T12:32:14.247Z,11.08
2022-10-17T12:37:14.319Z,11.08
2022-10-17T12:42:13.515Z,11.08
2022-10-17T12:47:12.697Z,11.08
2022-10-17T12:52:12.020Z,11.08
2022-10-17T12:57:11.250Z,11.08
2022-10-17T13:02:09.435Z,11.08
2022-10-17T13:07:09.633Z,11.08
2022-10-17T13:12:08.811Z,11.40
2022-10-17T13:17:07.981Z,11.40
2022-10-17T13:22:10.162Z,11.40
2022-10-17T13:27:06.547Z,11.40
2022-10-17T13:32:05.712Z,11.40
2022-10-17T13:37:05.054Z,11.40
2022-10-17T13:42:04.261Z,11.71
2022-10-17T13:47:03.470Z,11.71
2022-10-17T13:52:01.681Z,11.71
2022-10-17T13:57:01.933Z,12.01
2022-10-17T14:02:01.206Z,12.01
2022-10-17T14:07:00.411Z,12.01
2022-10-17T14:11:58.794Z,11.71
2022-10-17T14:16:57.801Z,11.71
2022-10-17T14:21:57.956Z,11.71
2022-10-17T14:26:57.133Z,11.71
2022-10-17T14:31:55.344Z,11.40
2022-10-17T14:36:55.538Z,12.31
2022-10-17T14:41:53.785Z,12.31
2022-10-17T14:46:54.003Z,12.62
2022-10-17T14:52:03.875Z,12.31
2022-10-17T14:56:52.501Z,12.31
2022-10-17T15:01:54.815Z,11.40
2022-10-17T15:06:52.927Z,11.40
2022-10-17T15:11:49.038Z,11.40
2022-10-17T15:16:49.369Z,11.40
2022-10-17T15:21:48.691Z,11.71
2022-10-17T15:26:47.902Z,11.71
2022-10-17T15:31:46.117Z,11.71
2022-10-17T15:36:46.278Z,11.71
2022-10-17T15:41:45.718Z,11.71
2022-10-17T15:46:43.948Z,12.01
2022-10-17T15:51:43.888Z,12.32
2022-10-17T15:56:44.229Z,12.32
2022-10-17T16:01:42.528Z,12.32
2022-10-17T16:06:42.683Z,12.32
2022-10-17T16:11:40.993Z,12.61
2022-10-17T16:16:44.363Z,11.98
2022-10-17T16:21:39.472Z,11.98
2022-10-17T16:26:39.777Z,11.98
2022-10-17T16:31:38.087Z,11.98
2022-10-17T16:36:37.376Z,11.98
2022-10-17T16:41:36.699Z,11.98
2022-10-17T16:46:35.981Z,11.98
2022-10-17T16:51:36.275Z,12.26
2022-10-17T16:56:34.564Z,12.26
2022-10-17T17:01:33.949Z,12.26
2022-10-17T17:06:34.100Z,11.98
2022-10-17T17:11:33.514Z,11.98
2022-10-17T17:16:32.468Z,12.26
2022-10-17T17:21:32.118Z,12.26
2022-10-17T17:26:32.039Z,12.26
2022-10-17T17:31:29.649Z,12.26
2022-10-17T17:36:28.573Z,11.98
2022-10-17T17:41:28.068Z,11.98
2022-10-17T17:46:27.553Z,11.98
2022-10-17T17:51:28.273Z,11.05
2022-10-17T17:56:26.097Z,11.33
2022-10-17T18:01:25.951Z,11.33
2022-10-17T18:06:26.440Z,11.33
2022-10-17T18:11:24.444Z,11.33
2022-10-17T18:16:27.767Z,11.33
2022-10-17T18:21:22.082Z,11.33
2022-10-17T18:26:22.107Z,11.33
2022-10-17T18:31:20.616Z,11.33
2022-10-17T18:36:20.789Z,11.61
2022-10-17T18:41:19.456Z,11.33
2022-10-17T18:46:18.175Z,11.33
2022-10-17T18:51:17.390Z,11.33
2022-10-17T18:56:17.954Z,11.33
2022-10-17T19:01:15.803Z,11.61
2022-10-17T19:06:14.838Z,11.61
2022-10-17T19:11:14.010Z,11.61
2022-10-17T19:16:14.286Z,11.22
2022-10-17T19:21:15.999Z,10.95
2022-10-17T19:26:11.582Z,10.95
2022-10-17T19:31:15.337Z,10.95
2022-10-17T19:36:10.191Z,11.61
2022-10-17T19:41:09.393Z,11.61
2022-10-17T19:46:09.549Z,11.33
2022-10-17T19:51:07.651Z,11.61
2022-10-17T19:56:08.347Z,11.61
2022-10-17T20:01:07.286Z,11.61
2022-10-17T20:06:05.478Z,11.61
2022-10-17T20:11:05.097Z,11.61
2022-10-17T20:16:04.303Z,11.33
2022-10-17T20:21:03.254Z,10.68
2022-10-17T20:26:08.600Z,11.33
2022-10-17T20:31:01.775Z,10.68
2022-10-17T20:36:02.103Z,11.61
2022-10-17T20:41:01.259Z,10.40
2022-10-17T20:46:09.627Z,11.33
2022-10-17T20:51:00.737Z,11.33
2022-10-17T20:55:59.076Z,11.33
2022-10-17T21:00:57.373Z,10.68
2022-10-17T21:05:57.664Z,10.95
2022-10-17T21:10:58.012Z,11.22
2022-10-17T21:15:56.305Z,11.22
2022-10-17T21:20:54.710Z,11.22
2022-10-17T21:25:55.837Z,11.22
2022-10-17T21:30:53.174Z,10.95
2022-10-17T21:35:52.308Z,11.22
2022-10-17T21:40:53.854Z,10.95
2022-10-17T21:45:51.026Z,10.95
2022-10-17T21:50:50.163Z,10.95
2022-10-17T21:55:49.496Z,10.95
2022-10-17T22:00:48.815Z,10.95
2022-10-17T22:05:49.193Z,10.95
2022-10-17T22:10:48.143Z,10.95
2022-10-17T22:15:46.473Z,10.68
2022-10-17T22:20:50.037Z,10.68
2022-10-17T22:25:45.141Z,10.68
2022-10-17T22:30:44.279Z,11.33
2022-10-17T22:35:44.591Z,10.68
2022-10-17T22:40:43.901Z,10.40
2022-10-17T22:45:42.224Z,10.40
2022-10-17T22:50:42.554Z,10.68
2022-10-17T22:55:41.865Z,10.68
2022-10-17T23:00:40.001Z,10.40
2022-10-17T23:05:38.166Z,10.40
2022-10-17T23:10:38.325Z,11.05
2022-10-17T23:15:37.511Z,10.12
2022-10-17T23:20:37.676Z,10.40
2022-10-17T23:25:35.827Z,10.12
2022-10-17T23:30:36.128Z,10.12
2022-10-17T23:35:34.416Z,10.12
2022-10-17T23:40:33.760Z,10.12
2022-10-17T23:45:35.948Z,10.12
2022-10-17T23:50:32.167Z,10.12
2022-10-17T23:55:31.472Z,10.12
